Time;durP1;ratioP1;P1;durP2;ratioP2;P2;SDS_P1;SDS_P2;PMS_P1;PMS_P2;Temp;Humidity;BMP_temperature;BMP_pressure;BME280_temperature;BME280_humidity;BME280_pressure;Samples;Min_cycle;Max_cycle;Signal;HPM_P1;HPM_P2
2021/01/14 00:02:03;;;;;;;13.32;8.48;;;;;;;1.21;88.09;98266.06;5054695;28;20057;-54
2021/01/14 00:04:29;;;;;;;11.50;7.30;;;;;;;1.10;88.41;98256.69;5056134;28;20059;-54
2021/01/14 00:06:55;;;;;;;13.93;8.35;;;;;;;1.09;88.75;98257.56;5056133;28;20049;-54
2021/01/14 00:09:21;;;;;;;9.52;6.80;;;;;;;1.20;88.27;98251.44;5056100;28;20056;-54
2021/01/14 00:11:47;;;;;;;11.50;7.68;;;;;;;1.12;88.40;98254.97;5055966;28;20078;-54
2021/01/14 00:14:13;;;;;;;10.82;7.55;;;;;;;1.13;88.54;98256.66;5056038;28;20049;-54
2021/01/14 00:16:39;;;;;;;10.82;7.00;;;;;;;1.25;87.97;98247.94;5055756;28;20037;-54
2021/01/14 00:19:05;;;;;;;11.45;7.88;;;;;;;1.21;88.25;98248.00;5055949;28;20060;-54
2021/01/14 00:21:31;;;;;;;17.75;9.43;;;;;;;1.28;88.04;98244.47;5055918;28;20049;-54
2021/01/14 00:23:57;;;;;;;12.35;8.18;;;;;;;1.24;88.12;98240.22;5055941;28;20052;-54
2021/01/14 00:26:23;;;;;;;16.88;8.98;;;;;;;1.22;87.99;98247.97;5054817;28;20345;-54
2021/01/14 00:28:49;;;;;;;11.70;8.18;;;;;;;1.17;88.23;98249.75;5055606;28;20330;-54
2021/01/14 00:31:15;;;;;;;12.88;7.20;;;;;;;1.12;88.57;98246.38;5055877;28;20103;-54
2021/01/14 00:33:40;;;;;;;11.32;8.02;;;;;;;1.16;88.37;98251.47;5055852;28;20056;-54
2021/01/14 00:36:07;;;;;;;17.42;10.90;;;;;;;1.25;88.20;98249.66;5055528;28;20056;-54
2021/01/14 00:38:33;;;;;;;12.18;8.35;;;;;;;1.22;88.28;98250.53;5056112;28;20052;-54
2021/01/14 00:40:59;;;;;;;15.27;9.40;;;;;;;1.20;88.26;98254.00;5057399;28;20049;-54
2021/01/14 00:43:24;;;;;;;17.17;10.02;;;;;;;1.18;88.39;98261.78;5059265;28;20135;-54
2021/01/14 00:45:51;;;;;;;15.15;9.73;;;;;;;1.24;88.50;98255.69;5058751;28;20140;-54
2021/01/14 00:48:16;;;;;;;11.50;7.93;;;;;;;1.26;88.18;98249.63;5059531;28;20064;-54
2021/01/14 00:50:42;;;;;;;16.55;10.48;;;;;;;1.30;88.14;98248.75;5059471;28;20519;-54
2021/01/14 00:53:08;;;;;;;11.88;8.10;;;;;;;1.31;87.89;98249.59;5059450;28;20056;-54
2021/01/14 00:55:34;;;;;;;12.02;8.30;;;;;;;1.22;88.01;98250.53;5059412;28;20049;-54
2021/01/14 00:58:00;;;;;;;15.40;8.80;;;;;;;1.25;88.24;98250.50;5059374;28;20369;-54
2021/01/14 01:00:26;;;;;;;11.55;7.70;;;;;;;1.28;87.98;98249.63;5058999;28;20445;-54
2021/01/14 01:02:53;;;;;;;14.38;8.35;;;;;;;1.39;87.67;98251.16;5058860;28;20053;-54
2021/01/14 01:05:19;;;;;;;18.27;11.20;;;;;;;1.29;87.74;98248.75;5058939;28;20472;-54
2021/01/14 01:07:47;;;;;;;10.32;6.97;;;;;;;1.23;87.68;98259.97;5059146;28;20334;-54
2021/01/14 01:10:13;;;;;;;11.05;7.03;;;;;;;1.33;87.41;98253.84;5059287;28;20081;-54
2021/01/14 01:12:38;;;;;;;13.05;7.47;;;;;;;1.27;87.31;98256.50;5059041;28;20110;-54
2021/01/14 01:15:05;;;;;;;11.00;7.07;;;;;;;1.25;87.58;98262.56;5058744;28;20434;-54
2021/01/14 01:17:32;;;;;;;13.07;7.07;;;;;;;1.22;87.67;98258.28;5058998;28;20127;-54
2021/01/14 01:19:58;;;;;;;10.48;6.80;;;;;;;1.30;87.19;98256.47;5059243;28;20119;-54
2021/01/14 01:22:24;;;;;;;9.90;4.85;;;;;;;1.17;87.28;98260.94;5058833;28;20041;-54
2021/01/14 01:24:50;;;;;;;7.70;4.60;;;;;;;1.18;86.78;98261.78;5058891;28;20401;-54
2021/01/14 01:27:15;;;;;;;9.27;4.75;;;;;;;1.16;86.88;98260.94;5059608;28;20453;-54
2021/01/14 01:29:41;;;;;;;9.00;5.40;;;;;;;1.00;86.99;98261.97;5059103;28;20334;-54
2021/01/14 01:32:07;;;;;;;5.30;4.07;;;;;;;0.97;87.02;98262.84;5058474;28;20045;-54
2021/01/14 01:34:33;;;;;;;5.95;3.80;;;;;;;0.86;87.07;98272.44;5058731;28;20049;-54
2021/01/14 01:36:59;;;;;;;7.20;4.40;;;;;;;0.87;87.46;98266.41;5058386;28;20418;-54
2021/01/14 01:39:25;;;;;;;7.45;5.18;;;;;;;0.91;87.60;98271.53;5058611;28;20041;-54
2021/01/14 01:41:56;;;;;;;7.43;4.55;;;;;;;1.02;87.04;98273.13;5090914;28;20041;-54
2021/01/14 01:44:23;;;;;;;8.60;5.07;;;;;;;0.94;87.58;98275.78;5058559;28;20114;-54
2021/01/14 01:46:49;;;;;;;8.70;4.70;;;;;;;1.05;86.94;98273.94;5058461;28;20136;-54
2021/01/14 01:49:14;;;;;;;8.75;5.55;;;;;;;1.05;86.85;98286.00;5058733;28;20051;-54
2021/01/14 01:51:41;;;;;;;11.18;4.30;;;;;;;1.03;87.04;98287.72;5056987;28;20045;-54
2021/01/14 01:54:07;;;;;;;7.82;4.20;;;;;;;1.04;87.18;98292.88;5058313;28;20114;-54
2021/01/14 01:56:33;;;;;;;6.10;3.80;;;;;;;1.05;86.97;98299.75;5074003;28;20065;-54
2021/01/14 01:58:59;;;;;;;5.65;3.47;;;;;;;1.03;87.31;98295.47;5073653;28;20380;-54
2021/01/14 02:01:25;;;;;;;8.70;4.05;;;;;;;1.01;87.57;98299.78;5057062;28;20059;-54
2021/01/14 02:03:51;;;;;;;7.07;3.58;;;;;;;0.92;87.89;98299.00;5057883;28;20106;-54
2021/01/14 02:06:17;;;;;;;7.88;4.28;;;;;;;0.98;88.05;98297.25;5057777;28;20053;-54
2021/01/14 02:08:48;;;;;;;5.43;3.78;;;;;;;1.00;87.87;98298.06;5057212;28;20053;-54
2021/01/14 02:11:32;;;;;;;7.47;3.72;;;;;;;1.08;87.29;98294.56;5057885;28;20456;-54
2021/01/14 02:14:10;;;;;;;7.38;3.70;;;;;;;1.04;87.07;98303.19;5090534;28;20044;-54
2021/01/14 02:16:37;;;;;;;6.13;3.72;;;;;;;0.97;87.64;98300.69;5057921;28;20064;-54
2021/01/14 02:19:06;;;;;;;6.90;4.53;;;;;;;1.07;87.53;98297.13;5057596;28;20449;-54
2021/01/14 02:21:32;;;;;;;11.38;4.68;;;;;;;1.08;87.53;98293.72;5056216;28;20691;-54
2021/01/14 02:24:19;;;;;;;8.52;4.28;;;;;;;0.99;87.19;98299.81;5073499;28;20049;-54
2021/01/14 02:26:45;;;;;;;9.55;4.00;;;;;;;0.97;87.40;98300.69;5090035;28;20045;-54
2021/01/14 02:29:10;;;;;;;7.82;4.20;;;;;;;1.01;87.51;98310.09;5073432;28;20126;-54
2021/01/14 02:31:36;;;;;;;7.05;3.40;;;;;;;1.15;86.96;98311.66;5089957;28;20504;-54
2021/01/14 02:34:02;;;;;;;3.13;2.00;;;;;;;0.95;87.07;98310.19;5057583;28;20128;-54
2021/01/14 02:36:28;;;;;;;4.63;2.55;;;;;;;0.94;87.58;98309.31;5057516;28;20060;-54
2021/01/14 02:38:54;;;;;;;4.55;2.45;;;;;;;1.00;87.13;98313.53;5040040;28;20075;-54
2021/01/14 02:41:20;;;;;;;6.03;3.13;;;;;;;1.05;87.50;98304.06;5057357;28;20052;-54
2021/01/14 02:43:47;;;;;;;4.47;2.75;;;;;;;0.97;86.92;98309.28;5057367;28;20064;-54
2021/01/14 02:46:13;;;;;;;3.35;1.38;;;;;;;0.91;87.11;98307.63;5057306;28;20056;-54
2021/01/14 02:48:39;;;;;;;2.92;2.10;;;;;;;0.95;87.26;98315.34;5057306;28;20067;-54
2021/01/14 02:51:06;;;;;;;7.40;2.20;;;;;;;0.98;86.70;98318.72;5089681;28;20349;-54
2021/01/14 02:53:32;;;;;;;2.25;1.80;;;;;;;0.90;86.90;98323.94;5057196;28;20053;-54
2021/01/14 02:55:59;;;;;;;3.03;1.98;;;;;;;0.89;86.75;98324.81;5072987;28;20048;-54
2021/01/14 02:58:26;;;;;;;4.05;2.08;;;;;;;0.82;87.10;98335.22;5057125;28;20060;-54
2021/01/14 03:00:52;;;;;;;4.53;2.10;;;;;;;0.84;87.58;98331.72;5072777;28;20052;-54
2021/01/14 03:03:18;;;;;;;2.55;1.70;;;;;;;0.87;86.95;98336.88;5055925;28;20141;-54
2021/01/14 03:05:44;;;;;;;3.38;1.90;;;;;;;0.93;86.19;98341.13;5056619;28;20445;-54
2021/01/14 03:08:09;;;;;;;2.55;1.40;;;;;;;0.80;86.87;98348.09;5056943;28;20044;-54
2021/01/14 03:10:35;;;;;;;2.40;1.27;;;;;;;0.74;86.96;98344.72;5056589;28;20072;-54
2021/01/14 03:13:01;;;;;;;3.72;2.03;;;;;;;0.81;86.89;98354.13;5056587;28;20107;-54
2021/01/14 03:15:27;;;;;;;2.03;1.55;;;;;;;0.76;86.88;98353.31;5056492;28;20445;-54
2021/01/14 03:17:53;;;;;;;3.60;2.47;;;;;;;0.74;86.29;98361.03;5056752;28;20053;-54
2021/01/14 03:20:19;;;;;;;3.33;1.77;;;;;;;0.72;86.68;98369.69;5056382;28;20499;-54
2021/01/14 03:22:45;;;;;;;5.47;1.80;;;;;;;0.69;86.60;98373.13;5056239;28;20045;-54
2021/01/14 03:25:11;;;;;;;4.85;2.03;;;;;;;0.65;86.54;98369.72;5055787;28;20048;-54
2021/01/14 03:27:41;;;;;;;2.75;1.85;;;;;;;0.64;86.62;98369.72;5056360;28;20090;-54
2021/01/14 03:30:08;;;;;;;2.95;1.80;;;;;;;0.68;86.09;98374.88;5056875;28;20045;-54
2021/01/14 03:32:34;;;;;;;3.58;1.98;;;;;;;0.59;86.36;98376.66;5057248;28;20049;-54
2021/01/14 03:35:00;;;;;;;5.85;2.83;;;;;;;0.56;86.21;98377.53;5056502;28;20045;-54
2021/01/14 03:37:26;;;;;;;3.65;2.03;;;;;;;0.50;86.92;98375.00;5056174;28;20075;-54
2021/01/14 03:39:52;;;;;;;4.57;2.40;;;;;;;0.49;86.55;98380.16;5056445;28;20390;-54
2021/01/14 03:42:21;;;;;;;4.20;2.03;;;;;;;0.45;87.02;98390.47;5056358;28;20056;-54
2021/01/14 03:44:47;;;;;;;3.60;2.05;;;;;;;0.45;87.14;98384.47;5056498;28;20151;-54
2021/01/14 03:47:13;;;;;;;3.17;2.00;;;;;;;0.55;86.90;98374.94;5088815;28;20049;-54
2021/01/14 03:49:40;;;;;;;4.43;2.30;;;;;;;0.57;86.94;98386.09;5056314;28;20053;-54
2021/01/14 03:52:09;;;;;;;3.28;2.63;;;;;;;0.54;86.84;98386.13;5056415;28;20044;-54
2021/01/14 03:54:35;;;;;;;3.03;2.50;;;;;;;0.51;87.12;98393.88;5088451;28;20060;-54
2021/01/14 03:57:02;;;;;;;5.00;2.50;;;;;;;0.55;87.11;98392.97;5055081;28;20434;-54
2021/01/14 03:59:28;;;;;;;3.55;2.45;;;;;;;0.47;87.65;98390.47;5055319;28;20118;-54
2021/01/14 04:02:06;;;;;;;3.45;2.58;;;;;;;0.42;87.72;98402.53;5055530;28;20430;-54
2021/01/14 04:04:39;;;;;;;4.00;2.42;;;;;;;0.43;88.25;98397.38;5055894;28;20445;-54
2021/01/14 04:07:05;;;;;;;;;;;;;;;0.28;88.80;98396.63;5056347;28;20048;-54
2021/01/14 04:09:31;;;;;;;9.88;6.38;;;;;;;0.35;88.50;98398.28;5055250;28;19924;-54
2021/01/14 04:11:57;;;;;;;6.03;4.15;;;;;;;0.39;88.63;98397.38;5055772;28;20056;-54
2021/01/14 04:14:23;;;;;;;8.30;4.10;;;;;;;0.29;88.39;98396.59;5056527;28;20060;-54
2021/01/14 04:16:50;;;;;;;5.30;3.78;;;;;;;0.42;88.00;98405.09;5060159;28;20111;-54
2021/01/14 04:19:15;;;;;;;6.53;4.65;;;;;;;0.37;88.11;98412.00;5060138;28;20053;-54
2021/01/14 04:21:42;;;;;;;7.45;5.22;;;;;;;0.43;87.99;98410.25;5059727;28;20041;-54
2021/01/14 04:24:08;;;;;;;6.95;4.38;;;;;;;0.39;88.03;98418.00;5060023;28;20052;-54
2021/01/14 04:26:34;;;;;;;6.80;4.55;;;;;;;0.36;88.37;98423.19;5059970;28;20048;-54
2021/01/14 04:29:00;;;;;;;6.93;4.25;;;;;;;0.34;88.21;98418.03;5059629;28;20055;-54
2021/01/14 04:31:25;;;;;;;4.53;4.00;;;;;;;0.40;87.88;98418.00;5059592;28;20049;-54
2021/01/14 04:33:51;;;;;;;7.43;3.90;;;;;;;0.53;87.60;98418.78;5059737;28;20052;-54
2021/01/14 04:36:18;;;;;;;9.27;4.72;;;;;;;0.47;87.43;98424.81;5059582;28;20049;-54
2021/01/14 04:38:43;;;;;;;9.77;4.13;;;;;;;0.50;87.52;98429.09;5059456;28;20057;-54
2021/01/14 04:41:09;;;;;;;5.47;3.83;;;;;;;0.51;86.96;98432.53;5059462;28;20048;-54
2021/01/14 04:43:35;;;;;;;4.78;4.07;;;;;;;0.44;87.44;98429.13;5058660;28;20076;-54
2021/01/14 04:46:05;;;;;;;9.70;6.13;;;;;;;0.52;87.43;98431.66;5059607;28;20422;-54
2021/01/14 04:48:36;;;;;;;8.05;6.03;;;;;;;0.52;86.72;98435.13;5093145;28;20056;-54
2021/01/14 04:51:09;;;;;;;6.40;5.13;;;;;;;0.50;87.02;98431.69;5090951;28;20354;-54
2021/01/14 04:53:35;;;;;;;;;;;;;;;0.34;86.86;98432.66;5059043;28;20049;-54
2021/01/14 04:56:06;;;;;;;4.93;3.78;;;;;;;0.53;86.37;98435.97;5059417;28;19920;-54
2021/01/14 04:58:35;;;;;;;6.07;4.35;;;;;;;0.39;86.85;98438.59;5059171;28;20071;-54
2021/01/14 05:01:09;;;;;;;6.45;4.30;;;;;;;0.40;86.68;98451.50;5059018;28;20430;-54
2021/01/14 05:03:35;;;;;;;7.35;4.00;;;;;;;0.39;86.50;98457.53;5058905;28;20487;-54
2021/01/14 05:06:01;;;;;;;6.57;3.97;;;;;;;0.41;86.71;98465.22;5074897;28;20048;-54
2021/01/14 05:08:31;;;;;;;8.07;3.97;;;;;;;0.49;86.25;98460.00;5092177;28;20048;-54
2021/01/14 05:10:57;;;;;;;4.22;3.45;;;;;;;0.40;86.51;98456.66;5059154;28;20365;-54
2021/01/14 05:13:23;;;;;;;12.10;5.68;;;;;;;0.39;87.09;98470.41;5059094;28;20126;-54
2021/01/14 05:15:49;;;;;;;6.68;4.60;;;;;;;0.35;86.91;98467.84;5059093;28;20426;-54
2021/01/14 05:18:15;;;;;;;8.48;3.63;;;;;;;0.41;86.69;98475.53;5059317;28;20406;-54
2021/01/14 05:20:41;;;;;;;8.35;5.18;;;;;;;0.45;86.98;98474.63;5059272;28;20055;-54
2021/01/14 05:23:07;;;;;;;11.30;6.10;;;;;;;0.46;86.59;98489.25;5058644;28;20449;-54
2021/01/14 05:25:33;;;;;;;8.80;5.25;;;;;;;0.36;86.91;98477.28;5059138;28;20051;-54
2021/01/14 05:28:12;;;;;;;8.75;5.15;;;;;;;0.47;86.64;98488.38;5058040;28;20041;-54
2021/01/14 05:30:39;;;;;;;16.75;4.80;;;;;;;0.40;86.94;98489.28;5058710;28;20045;-54
2021/01/14 05:33:11;;;;;;;11.23;5.97;;;;;;;0.43;86.90;98492.69;5058741;28;20041;-54
2021/01/14 05:35:37;;;;;;;9.23;5.80;;;;;;;0.52;86.38;98493.50;5059072;28;20417;-54
2021/01/14 05:38:03;;;;;;;14.30;6.93;;;;;;;0.44;86.56;98494.41;5058355;28;20472;-54
2021/01/14 05:40:29;;;;;;;19.13;9.38;;;;;;;0.42;86.90;98498.72;5058667;28;20172;-54
2021/01/14 05:43:02;;;;;;;16.10;9.05;;;;;;;0.43;86.98;98500.44;5058521;28;20079;-54
2021/01/14 05:45:28;;;;;;;10.90;6.20;;;;;;;0.49;86.60;98503.81;5058494;28;20055;-54
2021/01/14 05:48:10;;;;;;;24.45;9.07;;;;;;;0.45;86.41;98500.41;5058496;28;20049;-54
2021/01/14 05:50:44;;;;;;;150.73;39.33;;;;;;;0.32;86.95;98509.91;5074055;28;20049;-54
2021/01/14 05:53:17;;;;;;;324.40;113.32;;;;;;;0.36;86.93;98513.34;5058125;28;20362;-54
2021/01/14 05:55:44;;;;;;;113.85;47.15;;;;;;;0.41;87.23;98520.16;5058323;28;20061;-54
2021/01/14 05:58:16;;;;;;;15.50;8.43;;;;;;;0.52;86.30;98527.00;5058020;28;20370;-54
2021/01/14 06:00:43;;;;;;;14.05;9.00;;;;;;;0.39;86.77;98526.19;5058000;28;20128;-54
2021/01/14 06:03:27;;;;;;;22.38;13.73;;;;;;;0.47;86.44;98534.75;5090046;28;20076;-54
2021/01/14 06:05:53;;;;;;;59.95;28.73;;;;;;;0.44;87.17;98534.75;5057013;28;20077;-54
2021/01/14 06:08:26;;;;;;;30.17;13.93;;;;;;;0.37;87.04;98543.41;5057198;28;20053;-54
2021/01/14 06:10:52;;;;;;;26.85;14.63;;;;;;;0.34;87.46;98546.84;5040685;28;20048;-54
2021/01/14 06:13:18;;;;;;;93.50;47.88;;;;;;;0.42;86.91;98549.38;5057453;28;20114;-54
2021/01/14 06:15:53;;;;;;;34.67;18.80;;;;;;;0.39;87.00;98557.09;5057722;28;20041;-54
2021/01/14 06:18:19;;;;;;;84.80;36.10;;;;;;;0.42;87.12;98563.13;5025294;28;20064;-54
2021/01/14 06:20:52;;;;;;;230.57;86.55;;;;;;;0.37;87.34;98571.72;5056741;28;20037;-54
2021/01/14 06:23:22;;;;;;;223.05;94.25;;;;;;;0.43;87.26;98576.88;5057739;28;20354;-54
2021/01/14 06:25:52;;;;;;;344.52;155.02;;;;;;;0.37;87.64;98575.16;5057696;28;20067;-54
2021/01/14 06:28:22;;;;;;;249.05;98.80;;;;;;;0.45;87.35;98588.00;5056876;28;20063;-54
2021/01/14 06:30:58;;;;;;;324.60;117.50;;;;;;;0.42;87.75;98591.47;5057641;28;20128;-54
2021/01/14 06:33:25;;;;;;;518.35;346.83;;;;;;;0.43;88.04;98598.31;5057593;28;20045;-54
2021/01/14 06:35:53;;;;;;;662.95;275.52;;;;;;;0.45;87.70;98598.31;5057526;28;20045;-54
2021/01/14 06:38:19;;;;;;;845.92;304.10;;;;;;;0.44;87.89;98599.19;5055675;28;20049;-54
2021/01/14 06:40:45;;;;;;;748.25;263.40;;;;;;;0.45;87.89;98600.88;5056277;28;20365;-54
2021/01/14 06:43:12;;;;;;;559.42;150.13;;;;;;;0.51;87.52;98618.03;5040209;28;20048;-54
2021/01/14 06:45:51;;;;;;;585.47;149.65;;;;;;;0.54;87.17;98626.63;5056509;28;20064;-54
2021/01/14 06:48:17;;;;;;;373.88;90.82;;;;;;;0.41;87.40;98628.38;5057321;28;20144;-54
2021/01/14 06:50:47;;;;;;;438.42;115.70;;;;;;;0.38;87.54;98627.53;5039875;28;20437;-54
2021/01/14 06:53:13;;;;;;;607.83;162.90;;;;;;;0.40;87.56;98642.13;5056371;28;20083;-54
2021/01/14 06:55:40;;;;;;;351.02;84.63;;;;;;;0.34;87.79;98638.72;5039558;28;20073;-54
2021/01/14 06:58:15;;;;;;;65.90;19.30;;;;;;;0.39;87.85;98644.69;5023046;28;20110;-54
2021/01/14 07:00:45;;;;;;;324.15;78.13;;;;;;;0.43;87.99;98649.00;5057082;28;20053;-54
2021/01/14 07:03:14;;;;;;;334.17;76.00;;;;;;;0.49;87.72;98648.09;5055799;28;20045;-54
2021/01/14 07:05:55;;;;;;;467.27;157.65;;;;;;;0.49;87.60;98653.25;5056964;28;20045;-54
2021/01/14 07:08:38;;;;;;;226.52;56.97;;;;;;;0.55;87.83;98663.53;5056984;28;20049;-54
2021/01/14 07:11:05;;;;;;;397.60;119.63;;;;;;;0.61;88.00;98660.97;5056943;28;20064;-54
2021/01/14 07:13:36;;;;;;;201.98;73.88;;;;;;;0.67;87.54;98666.09;5057135;28;20044;-54
2021/01/14 07:16:02;;;;;;;521.20;155.00;;;;;;;0.73;87.50;98670.38;5056007;28;20341;-54
2021/01/14 07:18:29;;;;;;;568.35;150.38;;;;;;;0.67;87.44;98677.25;5056775;28;20045;-54
2021/01/14 07:21:00;;;;;;;502.38;213.05;;;;;;;0.70;87.45;98676.41;5056761;28;20092;-54
2021/01/14 07:23:26;;;;;;;320.65;104.20;;;;;;;0.76;87.56;98680.69;5056979;28;20045;-54
2021/01/14 07:25:52;;;;;;;329.08;92.80;;;;;;;0.74;87.24;98679.81;5055474;28;20412;-54
2021/01/14 07:28:18;;;;;;;394.42;109.93;;;;;;;0.69;87.78;98690.16;5055757;28;20067;-54
2021/01/14 07:30:44;;;;;;;344.48;103.40;;;;;;;0.75;87.77;98687.56;5055471;28;20044;-54
2021/01/14 07:33:10;;;;;;;541.85;165.73;;;;;;;0.84;87.75;98689.22;5061500;28;20052;-54
2021/01/14 07:35:37;;;;;;;152.25;51.25;;;;;;;0.82;87.39;98696.97;5074991;28;20052;-54
2021/01/14 07:38:16;;;;;;;141.63;48.92;;;;;;;0.84;87.65;98707.28;5076157;28;20059;-54
2021/01/14 07:40:42;;;;;;;304.75;109.78;;;;;;;1.00;87.09;98711.50;5106994;28;20044;-54
2021/01/14 07:43:10;;;;;;;164.50;65.97;;;;;;;1.02;86.82;98712.38;5076014;28;20044;-54
2021/01/14 07:45:37;;;;;;;84.32;35.42;;;;;;;1.04;86.84;98722.66;5076368;28;20117;-54
2021/01/14 07:48:20;;;;;;;137.82;50.28;;;;;;;1.05;86.74;98725.25;5075288;28;20048;-54
2021/01/14 07:50:56;;;;;;;74.55;35.13;;;;;;;1.08;87.30;98739.88;5075876;28;20048;-54
2021/01/14 07:53:22;;;;;;;29.00;17.00;;;;;;;1.04;87.28;98739.03;5076342;28;20105;-54
2021/01/14 07:55:48;;;;;;;37.00;22.30;;;;;;;1.04;86.92;98743.28;5109049;28;20048;-54
2021/01/14 07:58:22;;;;;;;51.28;26.20;;;;;;;1.11;87.23;98748.44;5076031;28;20047;-54
2021/01/14 08:01:05;;;;;;;56.78;30.13;;;;;;;1.26;86.75;98757.81;5108244;28;20045;-54
2021/01/14 08:03:38;;;;;;;63.58;30.85;;;;;;;1.29;86.72;98756.97;5075751;28;20056;-54
2021/01/14 08:06:30;;;;;;;34.65;19.30;;;;;;;1.30;86.51;98763.81;5076244;28;20048;-54
2021/01/14 08:09:01;;;;;;;42.72;23.77;;;;;;;1.28;86.47;98776.75;5075938;28;20047;-54
2021/01/14 08:11:37;;;;;;;36.22;20.33;;;;;;;1.29;86.60;98783.63;5075009;28;20441;-54
2021/01/14 08:14:12;;;;;;;35.00;20.67;;;;;;;1.27;86.55;98787.06;5076123;28;20134;-54
2021/01/14 08:16:47;;;;;;;38.15;23.30;;;;;;;1.15;86.81;98794.00;5076430;28;20062;-54
2021/01/14 08:19:32;;;;;;;40.20;26.63;;;;;;;1.28;87.42;98799.97;5108637;28;20053;-54
2021/01/14 08:22:00;;;;;;;62.90;44.15;;;;;;;1.33;87.19;98803.41;5076007;28;20127;-54
2021/01/14 08:24:59;;;;;;;73.72;46.63;;;;;;;1.36;86.62;98808.53;5076017;28;20049;-54
2021/01/14 08:27:37;;;;;;;66.10;41.03;;;;;;;1.40;86.60;98818.00;5075781;28;20421;-54
2021/01/14 08:30:13;;;;;;;67.63;37.35;;;;;;;1.45;86.74;98823.13;5075932;28;20036;-54
2021/01/14 08:32:40;;;;;;;60.55;33.13;;;;;;;1.45;86.72;98824.84;5075643;28;20071;-54
2021/01/14 08:35:15;;;;;;;62.65;35.55;;;;;;;1.59;86.42;98833.38;5075915;28;20052;-54
2021/01/14 08:37:57;;;;;;;62.75;33.65;;;;;;;1.56;86.32;98838.56;5075900;28;20063;-54
2021/01/14 08:40:22;;;;;;;68.53;37.38;;;;;;;1.49;86.61;98844.59;5075774;28;20068;-54
2021/01/14 08:43:01;;;;;;;52.15;29.40;;;;;;;1.49;86.30;98849.78;5076558;28;20433;-54
2021/01/14 08:45:29;;;;;;;53.38;30.38;;;;;;;1.50;86.54;98859.25;5108685;28;20048;-54
2021/01/14 08:48:02;;;;;;;50.60;29.58;;;;;;;1.49;86.36;98863.53;5075497;28;20040;-54
2021/01/14 08:50:54;;;;;;;68.70;43.05;;;;;;;1.63;86.34;98863.50;5075912;28;20045;-54
2021/01/14 08:53:29;;;;;;;54.38;33.08;;;;;;;1.58;86.75;98871.25;5089005;28;20056;-54
2021/01/14 08:56:08;;;;;;;55.20;33.00;;;;;;;1.79;86.58;98874.63;5075745;28;20059;-54
2021/01/14 08:58:45;;;;;;;131.20;60.28;;;;;;;1.78;86.03;98884.06;5075747;28;20368;-54
2021/01/14 09:01:17;;;;;;;66.65;37.22;;;;;;;1.95;85.58;98894.34;5075677;28;20433;-54
2021/01/14 09:03:45;;;;;;;55.85;32.53;;;;;;;2.05;85.10;98901.19;5078836;28;20060;-54
2021/01/14 09:06:11;;;;;;;126.22;65.82;;;;;;;1.89;84.60;98899.53;5078947;28;20059;-54
2021/01/14 09:08:39;;;;;;;66.85;37.25;;;;;;;1.97;84.91;98910.66;5078899;28;20044;-54
2021/01/14 09:11:05;;;;;;;73.45;37.22;;;;;;;2.10;84.15;98921.81;5079160;28;20393;-54
2021/01/14 09:13:31;;;;;;;93.88;51.35;;;;;;;1.78;84.81;98927.09;5078579;28;20052;-54
2021/01/14 09:15:58;;;;;;;73.32;37.42;;;;;;;1.95;84.75;98932.19;5078790;28;20048;-54
2021/01/14 09:18:32;;;;;;;77.00;44.60;;;;;;;1.95;84.44;98942.53;5079050;28;20071;-54
2021/01/14 09:20:58;;;;;;;77.03;40.67;;;;;;;1.89;84.71;98940.00;5078234;28;20052;-54
2021/01/14 09:23:32;;;;;;;85.28;37.30;;;;;;;1.95;84.38;98950.28;5094480;28;20437;-54
2021/01/14 09:25:59;;;;;;;72.78;35.42;;;;;;;1.91;84.52;98954.59;5078498;28;20056;-54
2021/01/14 09:28:26;;;;;;;52.28;29.30;;;;;;;2.04;84.19;98950.25;5077710;28;20074;-54
2021/01/14 09:30:54;;;;;;;113.38;45.90;;;;;;;1.91;84.61;98962.34;5077605;28;20048;-54
2021/01/14 09:33:21;;;;;;;90.80;38.88;;;;;;;1.97;84.81;98962.31;5078256;28;20041;-54
2021/01/14 09:36:13;;;;;;;47.90;27.73;;;;;;;2.01;83.99;98968.34;5078310;28;20033;-54
2021/01/14 09:38:47;;;;;;;59.78;31.20;;;;;;;2.00;84.69;98985.56;5078383;28;20063;-54
2021/01/14 09:41:19;;;;;;;56.85;30.67;;;;;;;2.08;83.70;98985.53;5077966;28;20056;-54
2021/01/14 09:43:45;;;;;;;91.00;38.50;;;;;;;2.05;84.08;99008.81;5076798;28;20044;-54
2021/01/14 09:46:13;;;;;;;68.95;32.55;;;;;;;2.16;83.51;98999.28;5077023;28;20059;-53
2021/01/14 09:48:40;;;;;;;54.17;29.58;;;;;;;2.25;83.27;99001.84;5077964;28;20048;-53
2021/01/14 09:51:10;;;;;;;158.32;88.30;;;;;;;2.16;82.34;99017.38;5110590;28;20119;-53
2021/01/14 09:53:48;;;;;;;100.55;53.85;;;;;;;2.22;82.42;99014.78;5077741;28;20048;-54
2021/01/14 09:56:19;;;;;;;131.15;63.55;;;;;;;2.33;82.63;99007.81;5076304;28;20433;-53
2021/01/14 09:58:45;;;;;;;75.50;42.03;;;;;;;2.28;81.36;99008.72;5076588;28;20086;-54
2021/01/14 10:01:12;;;;;;;113.40;63.85;;;;;;;2.20;82.17;99013.91;5077943;28;20441;-53
2021/01/14 10:03:38;;;;;;;53.90;29.17;;;;;;;2.13;81.35;99027.72;5076932;28;20056;-54
2021/01/14 10:06:04;;;;;;;75.82;41.47;;;;;;;2.17;81.44;99026.84;5093871;28;20448;-54
2021/01/14 10:08:30;;;;;;;175.13;100.93;;;;;;;2.10;81.71;99038.91;5110677;28;20052;-54
2021/01/14 10:10:56;;;;;;;64.03;36.10;;;;;;;1.79;81.41;99038.16;5078067;28;20044;-54
2021/01/14 10:13:21;;;;;;;92.60;53.53;;;;;;;1.86;81.71;99045.03;5060155;28;20050;-54
2021/01/14 10:15:47;;;;;;;106.80;56.15;;;;;;;2.02;81.05;99040.69;5077955;28;20049;-54
2021/01/14 10:18:26;;;;;;;56.58;31.90;;;;;;;2.06;80.50;99038.94;5077072;28;20059;-53
2021/01/14 10:20:59;;;;;;;77.70;42.15;;;;;;;1.93;80.64;99047.59;5077801;28;20384;-53
2021/01/14 10:23:25;;;;;;;77.72;40.33;;;;;;;1.99;80.55;99043.28;5078101;28;20037;-54
2021/01/14 10:25:51;;;;;;;72.82;39.00;;;;;;;1.99;80.27;99050.16;5077956;28;20032;-53
2021/01/14 10:28:17;;;;;;;63.97;35.13;;;;;;;2.12;80.07;99064.75;5077334;28;20041;-54
2021/01/14 10:30:43;;;;;;;95.05;42.60;;;;;;;2.12;80.17;99069.06;5076216;28;20067;-53
2021/01/14 10:33:09;;;;;;;69.38;33.83;;;;;;;2.32;79.37;99075.88;5075661;28;20048;-54
2021/01/14 10:35:36;;;;;;;62.17;30.88;;;;;;;2.51;79.40;99083.59;5075301;28;20052;-54
2021/01/14 10:38:10;;;;;;;61.22;30.85;;;;;;;2.65;78.53;99073.19;5075885;28;20048;-54
2021/01/14 10:40:40;;;;;;;63.15;29.38;;;;;;;2.81;77.77;99080.84;5075557;28;20079;-54
2021/01/14 10:43:09;;;;;;;107.30;51.47;;;;;;;2.91;77.21;99085.97;5075262;28;20372;-54
2021/01/14 10:45:37;;;;;;;89.05;49.88;;;;;;;2.92;76.98;99085.09;5075911;28;20471;-54
2021/01/14 10:48:10;;;;;;;56.50;31.65;;;;;;;3.01;76.08;99095.38;5077047;28;20055;-53
2021/01/14 10:50:46;;;;;;;82.15;50.33;;;;;;;2.84;75.22;99100.66;5077310;28;20059;-53
2021/01/14 10:53:12;;;;;;;79.18;42.92;;;;;;;2.67;75.18;99112.81;5077239;28;20146;-54
2021/01/14 10:55:39;;;;;;;74.85;44.83;;;;;;;2.54;75.38;99107.69;5076336;28;20131;-54
2021/01/14 10:58:06;;;;;;;113.93;53.28;;;;;;;2.29;76.19;99113.81;5076808;28;20121;-54
2021/01/14 11:00:39;;;;;;;80.68;38.70;;;;;;;2.29;76.60;99117.25;5077097;28;20053;-54
2021/01/14 11:03:12;;;;;;;51.33;24.80;;;;;;;2.24;76.70;99118.13;5076613;28;20079;-54
2021/01/14 11:05:39;;;;;;;52.40;26.42;;;;;;;2.22;76.65;99123.31;5077084;28;20052;-54
2021/01/14 11:08:37;;;;;;;78.15;33.50;;;;;;;2.24;76.20;99129.34;5109799;28;20055;-54
2021/01/14 11:11:08;;;;;;;83.03;38.30;;;;;;;2.16;76.59;99140.53;5076699;28;20060;-53
2021/01/14 11:13:47;;;;;;;96.75;44.20;;;;;;;2.09;76.56;99144.84;5109643;28;20135;-53
2021/01/14 11:16:14;;;;;;;122.05;46.45;;;;;;;2.27;77.29;99143.94;5076766;28;20052;-54
2021/01/14 11:18:44;;;;;;;83.60;36.60;;;;;;;2.56;76.82;99142.13;5076449;28;20064;-54
2021/01/14 11:21:10;;;;;;;104.53;50.75;;;;;;;2.92;76.79;99149.75;5075594;28;20060;-54
2021/01/14 11:23:36;;;;;;;96.97;43.90;;;;;;;3.22;76.53;99146.19;5075602;28;20052;-53
2021/01/14 11:26:03;;;;;;;70.10;35.60;;;;;;;3.53;74.62;99148.56;5076335;28;20140;-53
2021/01/14 11:28:41;;;;;;;75.43;34.38;;;;;;;3.39;73.05;99153.84;5075467;28;20449;-54
2021/01/14 11:31:10;;;;;;;57.83;28.50;;;;;;;3.30;72.84;99146.97;5076328;28;20052;-54
2021/01/14 11:33:36;;;;;;;140.70;54.20;;;;;;;3.44;73.21;99152.91;5076525;28;20435;-53
2021/01/14 11:36:02;;;;;;;73.10;33.20;;;;;;;3.44;71.95;99146.88;5076559;28;20040;-53
2021/01/14 11:38:28;;;;;;;229.02;107.68;;;;;;;3.51;71.79;99153.75;5076249;28;20040;-53
2021/01/14 11:40:54;;;;;;;46.92;24.85;;;;;;;3.24;71.75;99155.63;5076197;28;20048;-53